sensor_id;sensor_type;location;lat;lon;timestamp;P1;durP1;ratioP1;P2;durP2;ratioP2
48993;SDS011;34804;49.214;12.276;2022-09-27T00:00:04;6.43;;;2.58;;
48993;SDS011;34804;49.214;12.276;2022-09-27T00:02:32;5.32;;;2.67;;
48993;SDS011;34804;49.214;12.276;2022-09-27T00:04:58;7.00;;;2.75;;
48993;SDS011;34804;49.214;12.276;2022-09-27T00:07:25;5.03;;;2.72;;
48993;SDS011;34804;49.214;12.276;2022-09-27T00:09:52;6.05;;;2.42;;
48993;SDS011;34804;49.214;12.276;2022-09-27T00:12:19;6.00;;;2.53;;
48993;SDS011;34804;49.214;12.276;2022-09-27T00:14:45;5.47;;;2.25;;
48993;SDS011;34804;49.214;12.276;2022-09-27T00:17:12;6.03;;;3.05;;
48993;SDS011;34804;49.214;12.276;2022-09-27T00:19:39;4.88;;;2.30;;
48993;SDS011;34804;49.214;12.276;2022-09-27T00:22:05;4.93;;;2.42;;
48993;SDS011;34804;49.214;12.276;2022-09-27T00:24:32;5.10;;;2.47;;
48993;SDS011;34804;49.214;12.276;2022-09-27T00:26:59;4.15;;;2.17;;
48993;SDS011;34804;49.214;12.276;2022-09-27T00:29:26;4.28;;;2.05;;
48993;SDS011;34804;49.214;12.276;2022-09-27T00:31:53;4.57;;;2.13;;
48993;SDS011;34804;49.214;12.276;2022-09-27T00:34:21;5.22;;;2.10;;
48993;SDS011;34804;49.214;12.276;2022-09-27T00:36:50;4.38;;;2.08;;
48993;SDS011;34804;49.214;12.276;2022-09-27T00:39:18;4.50;;;2.08;;
48993;SDS011;34804;49.214;12.276;2022-09-27T00:41:44;5.38;;;2.38;;
48993;SDS011;34804;49.214;12.276;2022-09-27T00:49:27;5.65;;;2.00;;
48993;SDS011;34804;49.214;12.276;2022-09-27T00:52:02;4.43;;;1.95;;
48993;SDS011;34804;49.214;12.276;2022-09-27T00:54:33;4.40;;;2.00;;
48993;SDS011;34804;49.214;12.276;2022-09-27T00:57:03;5.78;;;2.13;;
48993;SDS011;34804;49.214;12.276;2022-09-27T01:01:57;4.80;;;2.05;;
48993;SDS011;34804;49.214;12.276;2022-09-27T01:04:26;5.65;;;2.20;;
48993;SDS011;34804;49.214;12.276;2022-09-27T01:06:54;5.10;;;2.10;;
48993;SDS011;34804;49.214;12.276;2022-09-27T01:09:21;5.65;;;2.47;;
48993;SDS011;34804;49.214;12.276;2022-09-27T01:11:50;4.38;;;2.10;;
48993;SDS011;34804;49.214;12.276;2022-09-27T01:20:14;5.80;;;2.30;;
48993;SDS011;34804;49.214;12.276;2022-09-27T01:23:15;5.13;;;2.35;;
48993;SDS011;34804;49.214;12.276;2022-09-27T01:28:24;5.40;;;2.47;;
48993;SDS011;34804;49.214;12.276;2022-09-27T01:33:43;7.90;;;2.45;;
48993;SDS011;34804;49.214;12.276;2022-09-27T01:38:48;4.88;;;2.25;;
48993;SDS011;34804;49.214;12.276;2022-09-27T01:41:25;4.10;;;2.05;;
48993;SDS011;34804;49.214;12.276;2022-09-27T01:44:01;4.50;;;2.10;;
48993;SDS011;34804;49.214;12.276;2022-09-27T01:46:47;4.97;;;2.35;;
48993;SDS011;34804;49.214;12.276;2022-09-27T01:49:25;6.70;;;2.28;;
48993;SDS011;34804;49.214;12.276;2022-09-27T01:52:03;4.10;;;2.10;;
48993;SDS011;34804;49.214;12.276;2022-09-27T01:54:38;4.80;;;2.50;;
48993;SDS011;34804;49.214;12.276;2022-09-27T01:57:08;4.68;;;2.30;;
48993;SDS011;34804;49.214;12.276;2022-09-27T01:59:43;4.53;;;2.03;;
48993;SDS011;34804;49.214;12.276;2022-09-27T02:02:45;5.10;;;2.08;;
48993;SDS011;34804;49.214;12.276;2022-09-27T02:05:16;4.90;;;2.10;;
48993;SDS011;34804;49.214;12.276;2022-09-27T02:07:47;5.63;;;2.30;;
48993;SDS011;34804;49.214;12.276;2022-09-27T02:10:23;4.65;;;2.30;;
48993;SDS011;34804;49.214;12.276;2022-09-27T02:12:55;5.80;;;2.25;;
48993;SDS011;34804;49.214;12.276;2022-09-27T02:15:28;5.07;;;2.30;;
48993;SDS011;34804;49.214;12.276;2022-09-27T02:18:07;4.30;;;2.00;;
48993;SDS011;34804;49.214;12.276;2022-09-27T02:20:44;6.07;;;2.22;;
48993;SDS011;34804;49.214;12.276;2022-09-27T02:23:22;4.85;;;2.30;;
48993;SDS011;34804;49.214;12.276;2022-09-27T02:25:56;5.60;;;2.30;;
48993;SDS011;34804;49.214;12.276;2022-09-27T02:31:01;5.32;;;2.47;;
48993;SDS011;34804;49.214;12.276;2022-09-27T02:33:49;6.25;;;2.63;;
48993;SDS011;34804;49.214;12.276;2022-09-27T02:36:18;6.47;;;2.00;;
48993;SDS011;34804;49.214;12.276;2022-09-27T02:38:46;5.50;;;2.15;;
48993;SDS011;34804;49.214;12.276;2022-09-27T02:41:14;5.82;;;2.03;;
48993;SDS011;34804;49.214;12.276;2022-09-27T02:43:42;4.45;;;2.10;;
48993;SDS011;34804;49.214;12.276;2022-09-27T03:00:42;3.83;;;1.88;;
48993;SDS011;34804;49.214;12.276;2022-09-27T03:06:10;4.18;;;1.90;;
48993;SDS011;34804;49.214;12.276;2022-09-27T03:08:42;4.05;;;1.85;;
48993;SDS011;34804;49.214;12.276;2022-09-27T03:11:09;6.63;;;2.08;;
48993;SDS011;34804;49.214;12.276;2022-09-27T03:13:36;3.85;;;1.75;;
48993;SDS011;34804;49.214;12.276;2022-09-27T03:16:24;5.22;;;2.08;;
48993;SDS011;34804;49.214;12.276;2022-09-27T03:18:50;4.50;;;1.83;;
48993;SDS011;34804;49.214;12.276;2022-09-27T03:21:17;5.05;;;2.00;;
48993;SDS011;34804;49.214;12.276;2022-09-27T03:23:45;3.80;;;1.77;;
48993;SDS011;34804;49.214;12.276;2022-09-27T03:26:11;3.58;;;1.60;;
48993;SDS011;34804;49.214;12.276;2022-09-27T03:28:38;6.03;;;1.90;;
48993;SDS011;34804;49.214;12.276;2022-09-27T03:31:05;3.88;;;1.65;;
48993;SDS011;34804;49.214;12.276;2022-09-27T03:33:32;4.45;;;1.90;;
48993;SDS011;34804;49.214;12.276;2022-09-27T03:35:59;5.07;;;2.10;;
48993;SDS011;34804;49.214;12.276;2022-09-27T03:38:25;4.78;;;1.95;;
48993;SDS011;34804;49.214;12.276;2022-09-27T03:40:52;4.72;;;1.80;;
48993;SDS011;34804;49.214;12.276;2022-09-27T03:43:19;5.30;;;1.88;;
48993;SDS011;34804;49.214;12.276;2022-09-27T03:45:46;8.18;;;2.03;;
48993;SDS011;34804;49.214;12.276;2022-09-27T03:48:13;4.00;;;1.88;;
48993;SDS011;34804;49.214;12.276;2022-09-27T03:50:40;3.58;;;1.70;;
48993;SDS011;34804;49.214;12.276;2022-09-27T03:53:07;3.50;;;1.60;;
48993;SDS011;34804;49.214;12.276;2022-09-27T03:55:34;4.28;;;1.90;;
48993;SDS011;34804;49.214;12.276;2022-09-27T03:58:01;4.95;;;1.85;;
48993;SDS011;34804;49.214;12.276;2022-09-27T04:00:28;8.02;;;1.75;;
48993;SDS011;34804;49.214;12.276;2022-09-27T04:02:57;4.03;;;1.70;;
48993;SDS011;34804;49.214;12.276;2022-09-27T04:05:26;2.70;;;1.23;;
48993;SDS011;34804;49.214;12.276;2022-09-27T04:07:54;3.33;;;1.30;;
48993;SDS011;34804;49.214;12.276;2022-09-27T04:10:21;2.00;;;0.95;;
48993;SDS011;34804;49.214;12.276;2022-09-27T04:12:48;1.88;;;1.08;;
48993;SDS011;34804;49.214;12.276;2022-09-27T04:15:15;2.63;;;1.27;;
48993;SDS011;34804;49.214;12.276;2022-09-27T04:17:42;2.30;;;1.20;;
48993;SDS011;34804;49.214;12.276;2022-09-27T04:20:10;3.45;;;1.45;;
48993;SDS011;34804;49.214;12.276;2022-09-27T04:22:40;3.85;;;1.63;;
48993;SDS011;34804;49.214;12.276;2022-09-27T04:25:09;3.67;;;1.60;;
48993;SDS011;34804;49.214;12.276;2022-09-27T04:27:36;4.32;;;1.30;;
48993;SDS011;34804;49.214;12.276;2022-09-27T04:30:03;2.75;;;1.38;;
48993;SDS011;34804;49.214;12.276;2022-09-27T04:32:31;2.40;;;1.08;;
48993;SDS011;34804;49.214;12.276;2022-09-27T04:34:58;3.42;;;1.52;;
48993;SDS011;34804;49.214;12.276;2022-09-27T04:37:43;4.65;;;1.60;;
48993;SDS011;34804;49.214;12.276;2022-09-27T04:40:11;4.05;;;1.50;;
48993;SDS011;34804;49.214;12.276;2022-09-27T04:42:38;3.95;;;1.60;;
48993;SDS011;34804;49.214;12.276;2022-09-27T04:45:05;3.75;;;1.70;;
48993;SDS011;34804;49.214;12.276;2022-09-27T04:47:32;4.57;;;1.40;;
48993;SDS011;34804;49.214;12.276;2022-09-27T04:50:00;3.78;;;1.60;;
48993;SDS011;34804;49.214;12.276;2022-09-27T04:52:27;3.55;;;1.70;;
48993;SDS011;34804;49.214;12.276;2022-09-27T04:54:54;5.53;;;1.83;;
48993;SDS011;34804;49.214;12.276;2022-09-27T04:57:21;5.60;;;1.90;;
48993;SDS011;34804;49.214;12.276;2022-09-27T04:59:47;3.15;;;1.55;;
48993;SDS011;34804;49.214;12.276;2022-09-27T05:02:16;4.15;;;1.40;;
48993;SDS011;34804;49.214;12.276;2022-09-27T05:04:43;2.90;;;1.40;;
48993;SDS011;34804;49.214;12.276;2022-09-27T05:07:10;2.30;;;1.17;;
48993;SDS011;34804;49.214;12.276;2022-09-27T05:09:37;3.00;;;1.50;;
48993;SDS011;34804;49.214;12.276;2022-09-27T05:12:04;3.50;;;1.50;;
48993;SDS011;34804;49.214;12.276;2022-09-27T05:14:33;2.70;;;1.40;;
48993;SDS011;34804;49.214;12.276;2022-09-27T05:17:00;4.40;;;1.65;;
48993;SDS011;34804;49.214;12.276;2022-09-27T05:19:27;4.13;;;1.70;;
48993;SDS011;34804;49.214;12.276;2022-09-27T05:21:54;4.97;;;1.70;;
48993;SDS011;34804;49.214;12.276;2022-09-27T05:24:20;4.43;;;1.30;;
48993;SDS011;34804;49.214;12.276;2022-09-27T05:26:47;4.25;;;1.50;;
48993;SDS011;34804;49.214;12.276;2022-09-27T05:29:14;4.00;;;1.80;;
48993;SDS011;34804;49.214;12.276;2022-09-27T05:31:41;3.85;;;1.88;;
48993;SDS011;34804;49.214;12.276;2022-09-27T05:34:08;2.55;;;1.35;;
48993;SDS011;34804;49.214;12.276;2022-09-27T05:36:35;4.38;;;1.55;;
48993;SDS011;34804;49.214;12.276;2022-09-27T05:39:03;2.42;;;1.30;;
48993;SDS011;34804;49.214;12.276;2022-09-27T05:41:30;2.70;;;1.52;;
48993;SDS011;34804;49.214;12.276;2022-09-27T05:43:58;4.70;;;1.80;;
48993;SDS011;34804;49.214;12.276;2022-09-27T05:46:25;2.85;;;1.40;;
48993;SDS011;34804;49.214;12.276;2022-09-27T05:48:51;3.53;;;1.50;;
48993;SDS011;34804;49.214;12.276;2022-09-27T05:51:18;3.75;;;1.50;;
48993;SDS011;34804;49.214;12.276;2022-09-27T05:53:46;3.70;;;1.60;;
48993;SDS011;34804;49.214;12.276;2022-09-27T05:56:13;3.70;;;1.50;;
48993;SDS011;34804;49.214;12.276;2022-09-27T05:58:39;3.38;;;1.55;;
48993;SDS011;34804;49.214;12.276;2022-09-27T06:01:06;5.50;;;1.60;;
48993;SDS011;34804;49.214;12.276;2022-09-27T06:03:34;5.00;;;1.60;;
48993;SDS011;34804;49.214;12.276;2022-09-27T06:06:01;2.58;;;1.35;;
48993;SDS011;34804;49.214;12.276;2022-09-27T06:08:33;4.03;;;1.52;;
48993;SDS011;34804;49.214;12.276;2022-09-27T06:11:01;3.45;;;1.10;;
48993;SDS011;34804;49.214;12.276;2022-09-27T06:13:30;2.78;;;1.20;;
48993;SDS011;34804;49.214;12.276;2022-09-27T06:16:02;2.28;;;1.00;;
48993;SDS011;34804;49.214;12.276;2022-09-27T06:18:29;3.03;;;0.90;;
48993;SDS011;34804;49.214;12.276;2022-09-27T06:20:58;1.45;;;0.80;;
48993;SDS011;34804;49.214;12.276;2022-09-27T06:23:26;2.65;;;0.80;;
48993;SDS011;34804;49.214;12.276;2022-09-27T06:25:53;3.13;;;0.73;;
48993;SDS011;34804;49.214;12.276;2022-09-27T06:28:20;3.97;;;0.80;;
48993;SDS011;34804;49.214;12.276;2022-09-27T06:30:49;2.03;;;0.65;;
48993;SDS011;34804;49.214;12.276;2022-09-27T06:33:16;1.30;;;0.50;;
48993;SDS011;34804;49.214;12.276;2022-09-27T06:35:45;4.00;;;1.23;;
48993;SDS011;34804;49.214;12.276;2022-09-27T06:38:14;3.78;;;1.45;;
48993;SDS011;34804;49.214;12.276;2022-09-27T06:40:42;2.58;;;0.82;;
48993;SDS011;34804;49.214;12.276;2022-09-27T06:43:14;1.45;;;0.73;;
48993;SDS011;34804;49.214;12.276;2022-09-27T06:45:42;0.80;;;0.50;;
48993;SDS011;34804;49.214;12.276;2022-09-27T06:48:10;2.72;;;0.80;;
48993;SDS011;34804;49.214;12.276;2022-09-27T06:50:39;1.27;;;0.45;;
48993;SDS011;34804;49.214;12.276;2022-09-27T06:53:07;2.20;;;0.70;;
48993;SDS011;34804;49.214;12.276;2022-09-27T06:55:36;2.65;;;0.68;;
48993;SDS011;34804;49.214;12.276;2022-09-27T06:58:03;2.08;;;0.73;;
48993;SDS011;34804;49.214;12.276;2022-09-27T07:00:50;2.05;;;0.70;;
48993;SDS011;34804;49.214;12.276;2022-09-27T07:03:21;1.58;;;0.60;;
48993;SDS011;34804;49.214;12.276;2022-09-27T07:06:01;2.38;;;0.75;;
48993;SDS011;34804;49.214;12.276;2022-09-27T07:08:30;2.78;;;0.70;;
48993;SDS011;34804;49.214;12.276;2022-09-27T07:11:01;2.60;;;0.73;;
48993;SDS011;34804;49.214;12.276;2022-09-27T07:13:30;2.35;;;0.77;;
48993;SDS011;34804;49.214;12.276;2022-09-27T07:15:59;3.53;;;0.70;;
48993;SDS011;34804;49.214;12.276;2022-09-27T07:18:27;2.22;;;0.70;;
48993;SDS011;34804;49.214;12.276;2022-09-27T07:20:54;2.08;;;0.70;;
48993;SDS011;34804;49.214;12.276;2022-09-27T07:23:25;1.52;;;0.68;;
48993;SDS011;34804;49.214;12.276;2022-09-27T07:25:52;2.97;;;0.80;;
48993;SDS011;34804;49.214;12.276;2022-09-27T07:28:19;1.83;;;0.73;;
48993;SDS011;34804;49.214;12.276;2022-09-27T07:30:48;3.50;;;0.88;;
48993;SDS011;34804;49.214;12.276;2022-09-27T07:33:19;3.20;;;0.70;;
48993;SDS011;34804;49.214;12.276;2022-09-27T07:35:46;2.78;;;1.55;;
48993;SDS011;34804;49.214;12.276;2022-09-27T07:38:13;1.58;;;0.60;;
48993;SDS011;34804;49.214;12.276;2022-09-27T07:40:40;1.23;;;0.57;;
48993;SDS011;34804;49.214;12.276;2022-09-27T07:43:07;2.92;;;0.80;;
48993;SDS011;34804;49.214;12.276;2022-09-27T07:45:35;1.50;;;0.57;;
48993;SDS011;34804;49.214;12.276;2022-09-27T07:48:05;3.05;;;0.70;;
48993;SDS011;34804;49.214;12.276;2022-09-27T07:50:34;1.75;;;0.60;;
48993;SDS011;34804;49.214;12.276;2022-09-27T07:53:01;2.50;;;0.80;;
48993;SDS011;34804;49.214;12.276;2022-09-27T07:55:30;1.83;;;0.60;;
48993;SDS011;34804;49.214;12.276;2022-09-27T07:58:01;2.03;;;0.70;;
48993;SDS011;34804;49.214;12.276;2022-09-27T08:00:29;4.03;;;0.80;;
48993;SDS011;34804;49.214;12.276;2022-09-27T08:02:55;1.77;;;0.50;;
48993;SDS011;34804;49.214;12.276;2022-09-27T08:05:22;2.65;;;0.60;;
48993;SDS011;34804;49.214;12.276;2022-09-27T08:07:53;1.83;;;0.57;;
48993;SDS011;34804;49.214;12.276;2022-09-27T08:10:21;0.77;;;0.45;;
48993;SDS011;34804;49.214;12.276;2022-09-27T08:12:56;0.77;;;0.35;;
48993;SDS011;34804;49.214;12.276;2022-09-27T08:15:24;1.80;;;0.63;;
48993;SDS011;34804;49.214;12.276;2022-09-27T08:17:50;0.95;;;0.38;;
48993;SDS011;34804;49.214;12.276;2022-09-27T08:20:18;0.93;;;0.40;;
48993;SDS011;34804;49.214;12.276;2022-09-27T08:22:45;1.38;;;0.55;;
48993;SDS011;34804;49.214;12.276;2022-09-27T08:25:12;2.20;;;0.60;;
48993;SDS011;34804;49.214;12.276;2022-09-27T08:27:39;1.15;;;0.40;;
48993;SDS011;34804;49.214;12.276;2022-09-27T08:30:07;1.95;;;0.50;;
48993;SDS011;34804;49.214;12.276;2022-09-27T08:32:35;1.38;;;0.82;;
48993;SDS011;34804;49.214;12.276;2022-09-27T08:35:03;1.00;;;0.30;;
48993;SDS011;34804;49.214;12.276;2022-09-27T08:37:32;1.52;;;0.40;;
48993;SDS011;34804;49.214;12.276;2022-09-27T08:39:59;0.80;;;0.40;;
48993;SDS011;34804;49.214;12.276;2022-09-27T08:45:17;0.93;;;0.50;;
48993;SDS011;34804;49.214;12.276;2022-09-27T08:47:52;1.23;;;0.40;;
48993;SDS011;34804;49.214;12.276;2022-09-27T08:50:24;1.25;;;0.50;;
48993;SDS011;34804;49.214;12.276;2022-09-27T08:53:22;1.30;;;0.50;;
48993;SDS011;34804;49.214;12.276;2022-09-27T08:55:56;0.93;;;0.40;;
48993;SDS011;34804;49.214;12.276;2022-09-27T08:58:28;2.80;;;0.45;;
48993;SDS011;34804;49.214;12.276;2022-09-27T09:01:02;1.75;;;0.40;;
48993;SDS011;34804;49.214;12.276;2022-09-27T09:03:37;2.15;;;0.50;;
48993;SDS011;34804;49.214;12.276;2022-09-27T09:06:11;1.42;;;0.60;;
48993;SDS011;34804;49.214;12.276;2022-09-27T09:11:29;1.98;;;0.63;;
48993;SDS011;34804;49.214;12.276;2022-09-27T09:30:39;0.80;;;0.60;;
48993;SDS011;34804;49.214;12.276;2022-09-27T09:33:20;1.27;;;0.50;;
48993;SDS011;34804;49.214;12.276;2022-09-27T09:35:54;1.90;;;0.60;;
48993;SDS011;34804;49.214;12.276;2022-09-27T09:38:40;1.92;;;0.70;;
48993;SDS011;34804;49.214;12.276;2022-09-27T09:41:17;0.93;;;0.40;;
48993;SDS011;34804;49.214;12.276;2022-09-27T09:43:54;1.50;;;0.63;;
48993;SDS011;34804;49.214;12.276;2022-09-27T09:46:37;1.85;;;0.80;;
48993;SDS011;34804;49.214;12.276;2022-09-27T09:49:19;1.48;;;0.63;;
48993;SDS011;34804;49.214;12.276;2022-09-27T09:51:51;1.63;;;0.68;;
48993;SDS011;34804;49.214;12.276;2022-09-27T09:57:00;1.33;;;0.60;;
48993;SDS011;34804;49.214;12.276;2022-09-27T09:59:33;2.78;;;0.80;;
48993;SDS011;34804;49.214;12.276;2022-09-27T10:02:12;1.48;;;0.70;;
48993;SDS011;34804;49.214;12.276;2022-09-27T10:04:48;2.80;;;0.73;;
48993;SDS011;34804;49.214;12.276;2022-09-27T10:07:15;2.00;;;0.93;;
48993;SDS011;34804;49.214;12.276;2022-09-27T10:09:47;3.05;;;0.80;;
48993;SDS011;34804;49.214;12.276;2022-09-27T10:12:15;2.65;;;0.85;;
48993;SDS011;34804;49.214;12.276;2022-09-27T10:14:43;1.52;;;0.70;;
48993;SDS011;34804;49.214;12.276;2022-09-27T10:17:14;1.88;;;0.80;;
48993;SDS011;34804;49.214;12.276;2022-09-27T10:19:44;2.20;;;0.80;;
48993;SDS011;34804;49.214;12.276;2022-09-27T10:22:23;2.70;;;0.80;;
48993;SDS011;34804;49.214;12.276;2022-09-27T10:24:55;0.63;;;0.47;;
48993;SDS011;34804;49.214;12.276;2022-09-27T10:27:48;1.30;;;0.45;;
48993;SDS011;34804;49.214;12.276;2022-09-27T10:30:22;1.80;;;0.45;;
48993;SDS011;34804;49.214;12.276;2022-09-27T10:32:53;0.75;;;0.50;;
48993;SDS011;34804;49.214;12.276;2022-09-27T10:40:49;1.98;;;0.60;;
48993;SDS011;34804;49.214;12.276;2022-09-27T10:43:23;1.08;;;0.50;;
48993;SDS011;34804;49.214;12.276;2022-09-27T10:48:34;1.45;;;0.50;;
48993;SDS011;34804;49.214;12.276;2022-09-27T10:51:03;0.90;;;0.50;;
48993;SDS011;34804;49.214;12.276;2022-09-27T10:53:33;1.38;;;0.60;;
48993;SDS011;34804;49.214;12.276;2022-09-27T10:56:01;1.30;;;0.50;;
48993;SDS011;34804;49.214;12.276;2022-09-27T11:01:06;1.00;;;0.60;;
48993;SDS011;34804;49.214;12.276;2022-09-27T11:03:35;1.02;;;0.52;;
48993;SDS011;34804;49.214;12.276;2022-09-27T11:08:50;0.95;;;0.60;;
48993;SDS011;34804;49.214;12.276;2022-09-27T11:11:25;1.25;;;0.70;;
48993;SDS011;34804;49.214;12.276;2022-09-27T11:30:56;1.65;;;0.80;;
48993;SDS011;34804;49.214;12.276;2022-09-27T11:36:32;0.95;;;0.63;;
48993;SDS011;34804;49.214;12.276;2022-09-27T11:39:25;0.85;;;0.40;;
48993;SDS011;34804;49.214;12.276;2022-09-27T11:42:26;2.72;;;0.60;;
48993;SDS011;34804;49.214;12.276;2022-09-27T11:45:09;1.02;;;0.60;;
48993;SDS011;34804;49.214;12.276;2022-09-27T11:54:33;1.17;;;0.60;;
48993;SDS011;34804;49.214;12.276;2022-09-27T12:05:17;1.45;;;0.52;;
48993;SDS011;34804;49.214;12.276;2022-09-27T12:10:20;1.23;;;0.63;;
48993;SDS011;34804;49.214;12.276;2022-09-27T12:12:51;1.65;;;0.65;;
48993;SDS011;34804;49.214;12.276;2022-09-27T12:18:09;0.95;;;0.60;;
48993;SDS011;34804;49.214;12.276;2022-09-27T12:20:42;1.52;;;0.70;;
48993;SDS011;34804;49.214;12.276;2022-09-27T12:23:10;1.48;;;0.70;;
48993;SDS011;34804;49.214;12.276;2022-09-27T12:25:40;0.80;;;0.55;;
48993;SDS011;34804;49.214;12.276;2022-09-27T12:28:11;1.83;;;0.60;;
48993;SDS011;34804;49.214;12.276;2022-09-27T12:30:58;0.95;;;0.63;;
48993;SDS011;34804;49.214;12.276;2022-09-27T12:33:58;1.02;;;0.57;;
48993;SDS011;34804;49.214;12.276;2022-09-27T12:36:58;4.25;;;1.05;;
48993;SDS011;34804;49.214;12.276;2022-09-27T12:42:41;2.17;;;1.00;;
48993;SDS011;34804;49.214;12.276;2022-09-27T12:45:15;2.40;;;0.80;;
48993;SDS011;34804;49.214;12.276;2022-09-27T12:48:01;1.35;;;0.80;;
48993;SDS011;34804;49.214;12.276;2022-09-27T13:00:17;1.10;;;0.47;;
48993;SDS011;34804;49.214;12.276;2022-09-27T13:05:51;0.60;;;0.40;;
48993;SDS011;34804;49.214;12.276;2022-09-27T13:14:22;1.33;;;0.30;;
48993;SDS011;34804;49.214;12.276;2022-09-27T13:16:53;1.15;;;0.40;;
48993;SDS011;34804;49.214;12.276;2022-09-27T13:19:36;0.80;;;0.45;;
48993;SDS011;34804;49.214;12.276;2022-09-27T13:22:10;2.75;;;0.50;;
48993;SDS011;34804;49.214;12.276;2022-09-27T13:24:54;2.83;;;0.80;;
48993;SDS011;34804;49.214;12.276;2022-09-27T13:32:39;1.73;;;0.60;;
48993;SDS011;34804;49.214;12.276;2022-09-27T13:35:10;0.32;;;0.30;;
48993;SDS011;34804;49.214;12.276;2022-09-27T13:37:49;0.47;;;0.30;;
48993;SDS011;34804;49.214;12.276;2022-09-27T13:40:22;0.38;;;0.30;;
48993;SDS011;34804;49.214;12.276;2022-09-27T13:48:12;0.90;;;0.40;;
48993;SDS011;34804;49.214;12.276;2022-09-27T13:53:18;2.38;;;0.40;;
48993;SDS011;34804;49.214;12.276;2022-09-27T13:55:48;1.20;;;0.43;;
48993;SDS011;34804;49.214;12.276;2022-09-27T14:03:46;0.20;;;0.20;;
48993;SDS011;34804;49.214;12.276;2022-09-27T14:06:24;0.98;;;0.47;;
48993;SDS011;34804;49.214;12.276;2022-09-27T14:08:56;0.40;;;0.30;;
48993;SDS011;34804;49.214;12.276;2022-09-27T14:11:37;1.48;;;0.40;;
48993;SDS011;34804;49.214;12.276;2022-09-27T14:14:15;2.08;;;0.63;;
48993;SDS011;34804;49.214;12.276;2022-09-27T14:16:45;2.33;;;0.60;;
48993;SDS011;34804;49.214;12.276;2022-09-27T14:19:14;1.00;;;0.50;;
48993;SDS011;34804;49.214;12.276;2022-09-27T14:21:46;1.27;;;0.50;;
48993;SDS011;34804;49.214;12.276;2022-09-27T14:24:30;1.65;;;0.60;;
48993;SDS011;34804;49.214;12.276;2022-09-27T14:29:50;8.55;;;1.75;;
48993;SDS011;34804;49.214;12.276;2022-09-27T14:32:20;0.95;;;0.47;;
48993;SDS011;34804;49.214;12.276;2022-09-27T14:37:59;1.30;;;0.52;;
48993;SDS011;34804;49.214;12.276;2022-09-27T14:43:25;1.80;;;0.52;;
48993;SDS011;34804;49.214;12.276;2022-09-27T14:45:57;0.68;;;0.40;;
48993;SDS011;34804;49.214;12.276;2022-09-27T14:48:30;0.43;;;0.40;;
48993;SDS011;34804;49.214;12.276;2022-09-27T14:54:00;2.45;;;0.50;;
48993;SDS011;34804;49.214;12.276;2022-09-27T14:56:49;1.70;;;0.80;;
48993;SDS011;34804;49.214;12.276;2022-09-27T14:59:39;3.13;;;0.73;;
48993;SDS011;34804;49.214;12.276;2022-09-27T15:02:31;3.47;;;0.80;;
48993;SDS011;34804;49.214;12.276;2022-09-27T15:05:19;1.13;;;0.50;;
48993;SDS011;34804;49.214;12.276;2022-09-27T15:08:08;1.30;;;0.63;;
48993;SDS011;34804;49.214;12.276;2022-09-27T15:10:57;1.98;;;0.70;;
48993;SDS011;34804;49.214;12.276;2022-09-27T15:13:43;2.75;;;0.88;;
48993;SDS011;34804;49.214;12.276;2022-09-27T15:16:32;2.20;;;1.20;;
48993;SDS011;34804;49.214;12.276;2022-09-27T15:22:22;3.45;;;1.00;;
48993;SDS011;34804;49.214;12.276;2022-09-27T15:25:19;1.50;;;0.90;;
48993;SDS011;34804;49.214;12.276;2022-09-27T15:28:21;3.00;;;1.05;;
48993;SDS011;34804;49.214;12.276;2022-09-27T15:31:10;1.88;;;0.90;;
48993;SDS011;34804;49.214;12.276;2022-09-27T15:33:58;2.22;;;0.90;;
48993;SDS011;34804;49.214;12.276;2022-09-27T15:39:40;1.35;;;0.60;;
48993;SDS011;34804;49.214;12.276;2022-09-27T15:42:27;3.33;;;1.15;;
48993;SDS011;34804;49.214;12.276;2022-09-27T15:45:34;3.08;;;0.80;;
48993;SDS011;34804;49.214;12.276;2022-09-27T15:48:24;2.45;;;0.82;;
48993;SDS011;34804;49.214;12.276;2022-09-27T15:51:36;1.77;;;0.80;;
48993;SDS011;34804;49.214;12.276;2022-09-27T15:54:28;1.95;;;0.65;;
48993;SDS011;34804;49.214;12.276;2022-09-27T15:57:14;2.33;;;0.85;;
48993;SDS011;34804;49.214;12.276;2022-09-27T15:59:42;3.65;;;0.85;;
48993;SDS011;34804;49.214;12.276;2022-09-27T16:02:11;2.33;;;0.70;;
48993;SDS011;34804;49.214;12.276;2022-09-27T16:04:41;1.95;;;0.73;;
48993;SDS011;34804;49.214;12.276;2022-09-27T16:07:09;2.05;;;0.70;;
48993;SDS011;34804;49.214;12.276;2022-09-27T16:09:38;1.83;;;0.82;;
48993;SDS011;34804;49.214;12.276;2022-09-27T16:12:05;1.70;;;0.90;;
48993;SDS011;34804;49.214;12.276;2022-09-27T16:14:32;2.72;;;1.17;;
48993;SDS011;34804;49.214;12.276;2022-09-27T16:16:58;0.93;;;0.60;;
48993;SDS011;34804;49.214;12.276;2022-09-27T16:19:25;2.42;;;0.95;;
48993;SDS011;34804;49.214;12.276;2022-09-27T16:21:53;2.28;;;1.20;;
48993;SDS011;34804;49.214;12.276;2022-09-27T16:24:21;2.00;;;0.82;;
48993;SDS011;34804;49.214;12.276;2022-09-27T16:26:50;3.10;;;0.88;;
48993;SDS011;34804;49.214;12.276;2022-09-27T16:29:17;2.88;;;1.10;;
48993;SDS011;34804;49.214;12.276;2022-09-27T16:31:44;1.63;;;0.77;;
48993;SDS011;34804;49.214;12.276;2022-09-27T16:34:11;2.10;;;0.68;;
48993;SDS011;34804;49.214;12.276;2022-09-27T16:36:38;1.75;;;0.80;;
48993;SDS011;34804;49.214;12.276;2022-09-27T16:39:06;1.58;;;0.70;;
48993;SDS011;34804;49.214;12.276;2022-09-27T16:41:35;1.80;;;0.75;;
48993;SDS011;34804;49.214;12.276;2022-09-27T16:44:06;2.97;;;0.70;;
48993;SDS011;34804;49.214;12.276;2022-09-27T16:46:42;3.42;;;0.85;;
48993;SDS011;34804;49.214;12.276;2022-09-27T16:49:14;2.75;;;0.75;;
48993;SDS011;34804;49.214;12.276;2022-09-27T16:51:59;1.63;;;0.50;;
48993;SDS011;34804;49.214;12.276;2022-09-27T16:54:30;2.03;;;0.75;;
48993;SDS011;34804;49.214;12.276;2022-09-27T16:56:57;2.90;;;0.77;;
48993;SDS011;34804;49.214;12.276;2022-09-27T16:59:24;2.08;;;0.90;;
48993;SDS011;34804;49.214;12.276;2022-09-27T17:01:52;3.78;;;1.00;;
48993;SDS011;34804;49.214;12.276;2022-09-27T17:04:24;1.38;;;0.68;;
48993;SDS011;34804;49.214;12.276;2022-09-27T17:06:55;3.47;;;1.50;;
48993;SDS011;34804;49.214;12.276;2022-09-27T17:09:23;4.03;;;1.63;;
48993;SDS011;34804;49.214;12.276;2022-09-27T17:11:50;6.10;;;2.15;;
48993;SDS011;34804;49.214;12.276;2022-09-27T17:14:17;4.55;;;2.50;;
48993;SDS011;34804;49.214;12.276;2022-09-27T17:16:47;4.78;;;1.90;;
48993;SDS011;34804;49.214;12.276;2022-09-27T17:21:44;2.47;;;1.23;;
48993;SDS011;34804;49.214;12.276;2022-09-27T17:24:11;3.80;;;1.23;;
48993;SDS011;34804;49.214;12.276;2022-09-27T17:26:38;4.70;;;2.00;;
48993;SDS011;34804;49.214;12.276;2022-09-27T17:29:06;3.70;;;1.70;;
48993;SDS011;34804;49.214;12.276;2022-09-27T17:31:35;3.90;;;1.50;;
48993;SDS011;34804;49.214;12.276;2022-09-27T17:34:03;3.63;;;1.90;;
48993;SDS011;34804;49.214;12.276;2022-09-27T17:36:31;4.55;;;2.17;;
48993;SDS011;34804;49.214;12.276;2022-09-27T17:38:59;6.03;;;1.98;;
48993;SDS011;34804;49.214;12.276;2022-09-27T17:41:27;5.03;;;2.35;;
48993;SDS011;34804;49.214;12.276;2022-09-27T17:43:56;4.78;;;2.55;;
48993;SDS011;34804;49.214;12.276;2022-09-27T17:46:33;4.38;;;2.10;;
48993;SDS011;34804;49.214;12.276;2022-09-27T17:49:02;4.45;;;2.05;;
48993;SDS011;34804;49.214;12.276;2022-09-27T17:51:48;4.43;;;2.25;;
48993;SDS011;34804;49.214;12.276;2022-09-27T17:54:18;12.52;;;2.30;;
48993;SDS011;34804;49.214;12.276;2022-09-27T17:56:48;4.53;;;2.25;;
48993;SDS011;34804;49.214;12.276;2022-09-27T17:59:16;4.18;;;1.90;;
48993;SDS011;34804;49.214;12.276;2022-09-27T18:01:44;4.15;;;1.80;;